Terminal Aerodrome Forecast
Issued by NWS Billings, MT

Home | Current Version | Previous Version | Text Only | Print | Product List | Glossary Off
Versions: 1 2 3 4 5 6 7 8 9 10 11 12 13 14 15 16

000
FTUS45 KBYZ 232331
TAFMLS
TAF
KMLS 232331Z 2400/2424 29015G25KT P6SM VCSH SCT070 BKN100
     FM240600 VRB06KT P6SM FEW070 BKN150
     FM241600 01010KT P6SM FEW090 SCT150=

USA.gov is the U.S. government's official web portal to all federal, state and local government web resources and services.